Time;durP1;ratioP1;P1;durP2;ratioP2;P2;SDS_P1;SDS_P2;PMS_P1;PMS_P2;Temp;Humidity;BMP_temperature;BMP_pressure;BME280_temperature;BME280_humidity;BME280_pressure;Samples;Min_cycle;Max_cycle;Signal;HPM_P1;HPM_P2
2023/02/17 00:03:36;;;;;;;18.00;16.17;;;9.80;42.40;;;;;;10400566;28;20229;-69
2023/02/17 00:08:40;;;;;;;15.87;14.27;;;9.90;43.00;;;;;;10406869;28;20238;-69
2023/02/17 00:13:44;;;;;;;16.00;14.33;;;10.00;41.30;;;;;;10418857;28;20233;-69
2023/02/17 00:18:52;;;;;;;15.23;12.10;;;10.00;41.00;;;;;;10397855;28;20720;-71
2023/02/17 00:23:57;;;;;;;10.53;9.00;;;10.00;40.90;;;;;;10412046;28;20435;-70
2023/02/17 00:29:01;;;;;;;14.03;11.30;;;10.10;41.10;;;;;;10418302;28;20229;-70
2023/02/17 00:34:05;;;;;;;10.17;8.87;;;10.30;41.10;;;;;;10407701;28;20613;-70
2023/02/17 00:39:08;;;;;;;11.53;9.17;;;10.50;41.40;;;;;;10420422;28;20230;-70
2023/02/17 00:44:17;;;;;;;11.53;8.80;;;10.70;41.20;;;;;;10410508;28;20244;-70
2023/02/17 00:49:22;;;;;;;12.70;8.90;;;10.90;40.70;;;;;;10401658;28;20574;-70
2023/02/17 00:54:25;;;;;;;10.63;8.57;;;11.00;40.80;;;;;;10405537;28;20241;-70
2023/02/17 00:59:30;;;;;;;12.80;9.23;;;11.10;40.90;;;;;;10395319;28;20245;-70
2023/02/17 01:04:33;;;;;;;13.43;10.00;;;11.30;40.50;;;;;;10405886;28;20288;-70
2023/02/17 01:09:36;;;;;;;13.47;9.60;;;11.40;40.60;;;;;;10404330;28;20317;-70
2023/02/17 01:14:41;;;;;;;9.70;8.17;;;11.50;40.50;;;;;;10395203;28;20234;-70
2023/02/17 01:19:44;;;;;;;9.20;7.97;;;11.50;39.70;;;;;;10411808;28;20229;-70
2023/02/17 01:24:47;;;;;;;9.73;7.90;;;11.50;40.00;;;;;;10403204;28;20229;-70
2023/02/17 01:29:51;;;;;;;10.57;8.10;;;11.60;39.90;;;;;;10414881;28;20221;-70
2023/02/17 01:34:54;;;;;;;9.87;8.13;;;11.60;39.30;;;;;;10396503;28;20601;-70
2023/02/17 01:39:57;;;;;;;8.83;7.77;;;11.60;39.80;;;;;;10398296;28;20247;-70
2023/02/17 01:45:37;;;;;;;9.20;7.90;;;11.70;39.50;;;;;;10414167;28;20237;-70
2023/02/17 01:50:44;;;;;;;8.20;7.37;;;11.70;38.70;;;;;;10326543;28;20496;-70
2023/02/17 01:55:47;;;;;;;9.23;7.33;;;11.70;38.80;;;;;;10402204;28;20229;-70
2023/02/17 02:00:54;;;;;;;8.93;7.40;;;11.80;39.50;;;;;;10407775;28;20601;-70
2023/02/17 02:05:58;;;;;;;9.80;7.40;;;11.80;38.30;;;;;;10410457;28;20420;-70
2023/02/17 02:11:02;;;;;;;8.87;7.40;;;11.90;39.00;;;;;;10410977;28;20233;-70
2023/02/17 02:16:14;;;;;;;9.07;7.57;;;11.90;39.10;;;;;;10400285;28;20234;-70
2023/02/17 02:22:04;;;;;;;9.53;7.20;;;12.00;37.90;;;;;;10406971;28;20230;-70
2023/02/17 02:27:35;;;;;;;8.30;6.47;;;12.00;37.30;;;;;;10245665;28;20674;-70
2023/02/17 02:33:07;;;;;;;7.50;6.73;;;12.10;37.70;;;;;;10381334;28;20698;-70
2023/02/17 02:38:14;;;;;;;8.20;6.40;;;12.20;37.50;;;;;;10414211;28;20240;-70
2023/02/17 02:43:18;;;;;;;7.90;6.33;;;12.20;37.80;;;;;;10405717;28;20236;-70
2023/02/17 02:48:22;;;;;;;7.13;6.30;;;12.30;38.60;;;;;;10420401;28;20226;-70
2023/02/17 02:53:53;;;;;;;7.23;5.90;;;12.30;37.90;;;;;;10420712;28;20724;-70
2023/02/17 02:59:06;;;;;;;8.30;5.70;;;12.40;36.90;;;;;;10411614;28;20224;-70
2023/02/17 03:04:15;;;;;;;7.33;6.00;;;12.40;37.10;;;;;;10417102;28;20231;-70
2023/02/17 03:09:23;;;;;;;7.27;5.57;;;12.40;36.90;;;;;;10415906;28;20233;-70
2023/02/17 03:14:27;;;;;;;6.40;5.63;;;12.40;37.20;;;;;;10413968;28;20237;-70
2023/02/17 03:19:31;;;;;;;6.43;5.10;;;12.40;37.50;;;;;;10412400;28;20230;-70
2023/02/17 03:24:35;;;;;;;7.03;5.10;;;12.50;37.40;;;;;;10406221;28;20731;-70
2023/02/17 03:29:38;;;;;;;6.10;5.23;;;12.50;37.70;;;;;;10422780;28;20221;-70
2023/02/17 03:34:43;;;;;;;5.20;4.70;;;12.50;37.80;;;;;;10409005;28;20282;-70
2023/02/17 03:39:46;;;;;;;8.20;4.97;;;12.50;37.20;;;;;;10408311;28;20233;-71
2023/02/17 03:44:49;;;;;;;8.40;5.10;;;12.60;37.50;;;;;;10394903;28;20250;-71
2023/02/17 03:49:54;;;;;;;5.33;4.83;;;12.60;37.40;;;;;;10393511;28;20228;-71
2023/02/17 03:54:57;;;;;;;7.10;4.20;;;12.70;37.00;;;;;;10393621;28;20237;-71
2023/02/17 04:00:00;;;;;;;5.20;4.60;;;12.70;37.50;;;;;;10392429;28;20234;-71
2023/02/17 04:05:05;;;;;;;5.47;4.93;;;12.80;37.40;;;;;;10399398;28;20578;-71
2023/02/17 04:10:09;;;;;;;8.33;5.93;;;12.80;36.60;;;;;;10391238;28;20241;-71
2023/02/17 04:15:12;;;;;;;7.03;5.10;;;12.90;37.00;;;;;;10396743;28;20241;-71
2023/02/17 04:20:17;;;;;;;6.07;4.20;;;12.90;36.70;;;;;;10388044;28;20226;-71
2023/02/17 04:25:20;;;;;;;5.27;4.07;;;13.00;36.50;;;;;;10393320;28;20611;-71
2023/02/17 04:30:23;;;;;;;4.20;3.73;;;13.00;36.90;;;;;;10394372;28;20237;-71
2023/02/17 04:35:28;;;;;;;5.37;3.63;;;13.00;36.90;;;;;;10395133;28;20241;-71
2023/02/17 04:40:31;;;;;;;6.10;4.00;;;13.10;36.40;;;;;;10393180;28;20233;-71
2023/02/17 04:45:34;;;;;;;6.47;4.60;;;13.10;36.60;;;;;;10398553;28;20728;-73
2023/02/17 04:50:39;;;;;;;8.00;5.03;;;13.20;36.70;;;;;;10391133;28;20225;-73
2023/02/17 04:55:42;;;;;;;7.43;4.87;;;13.20;35.90;;;;;;10391656;28;20226;-73
2023/02/17 05:00:47;;;;;;;6.20;4.20;;;13.20;36.20;;;;;;10397448;28;20226;-73
2023/02/17 05:05:51;;;;;;;7.80;4.43;;;13.20;35.80;;;;;;10396590;28;20242;-73
2023/02/17 05:10:54;;;;;;;5.53;4.23;;;13.20;35.60;;;;;;10394339;28;20689;-73
2023/02/17 05:15:57;;;;;;;5.87;4.20;;;13.30;36.10;;;;;;10390513;28;20275;-73
2023/02/17 05:21:02;;;;;;;7.50;4.90;;;13.30;36.10;;;;;;10389119;28;20259;-73
2023/02/17 05:26:05;;;;;;;7.20;5.17;;;13.30;35.60;;;;;;10388167;28;20252;-73
2023/02/17 05:31:09;;;;;;;5.77;4.77;;;13.30;35.70;;;;;;10396619;28;20253;-73
2023/02/17 05:36:14;;;;;;;5.90;4.90;;;13.30;35.80;;;;;;10394583;28;20634;-73
2023/02/17 05:41:17;;;;;;;4.63;3.97;;;13.30;35.40;;;;;;10391315;28;20230;-73
2023/02/17 05:46:21;;;;;;;5.30;4.10;;;13.30;35.80;;;;;;10384408;28;20233;-73
2023/02/17 05:51:26;;;;;;;6.00;4.67;;;13.30;35.80;;;;;;10380012;28;20234;-71
2023/02/17 05:56:29;;;;;;;6.93;5.73;;;13.30;35.60;;;;;;10382088;28;20836;-70
2023/02/17 06:01:32;;;;;;;8.27;5.43;;;13.30;35.80;;;;;;10381096;28;20450;-70
2023/02/17 06:06:39;;;;;;;8.27;6.30;;;13.30;35.90;;;;;;10385405;28;20670;-70
2023/02/17 06:11:42;;;;;;;5.97;4.90;;;13.30;35.50;;;;;;10372757;28;20694;-73
2023/02/17 06:16:45;;;;;;;7.83;5.07;;;13.30;35.80;;;;;;10379622;28;20250;-74
2023/02/17 06:21:50;;;;;;;6.07;5.20;;;13.30;35.80;;;;;;10395455;28;20567;-70
2023/02/17 06:26:53;;;;;;;6.47;4.70;;;13.30;35.30;;;;;;10400068;28;20226;-71
2023/02/17 06:31:57;;;;;;;5.50;5.00;;;13.30;35.70;;;;;;10402831;28;20229;-71
2023/02/17 06:37:01;;;;;;;5.23;4.60;;;13.30;35.80;;;;;;10403745;28;20244;-71
2023/02/17 06:42:05;;;;;;;6.73;5.40;;;13.30;35.30;;;;;;10398912;28;20237;-71
2023/02/17 06:47:08;;;;;;;6.80;5.60;;;13.30;35.50;;;;;;10386430;28;20238;-72
2023/02/17 06:52:12;;;;;;;7.40;4.83;;;13.40;35.60;;;;;;10388100;28;20227;-72
2023/02/17 06:57:16;;;;;;;7.23;5.23;;;13.40;35.00;;;;;;10384441;28;20226;-72
2023/02/17 07:02:19;;;;;;;7.10;5.10;;;13.40;35.70;;;;;;10380924;28;20257;-73
2023/02/17 07:07:23;;;;;;;7.07;5.20;;;13.40;35.70;;;;;;10383613;28;20238;-72
2023/02/17 07:12:27;;;;;;;6.80;5.23;;;13.40;35.10;;;;;;10384903;28;20234;-71
2023/02/17 07:17:30;;;;;;;9.20;5.07;;;13.40;35.20;;;;;;10393784;28;20247;-70
2023/02/17 07:22:35;;;;;;;7.00;5.03;;;13.40;35.40;;;;;;10391353;28;20590;-70
2023/02/17 07:27:38;;;;;;;7.00;5.30;;;13.50;35.30;;;;;;10393321;28;20601;-69
2023/02/17 07:32:41;;;;;;;4.70;4.30;;;13.50;35.90;;;;;;10388993;28;20244;-69
2023/02/17 07:37:46;;;;;;;5.17;4.43;;;13.50;35.60;;;;;;10393043;28;20238;-69
2023/02/17 07:42:49;;;;;;;5.50;4.43;;;13.50;35.10;;;;;;10394658;28;20226;-69
2023/02/17 07:47:52;;;;;;;5.37;4.40;;;13.60;35.40;;;;;;10395722;28;20237;-69
2023/02/17 07:52:56;;;;;;;5.47;4.53;;;13.60;35.40;;;;;;10400778;28;20283;-69
2023/02/17 07:58:00;;;;;;;11.37;7.80;;;13.60;35.10;;;;;;10393494;28;20615;-69
2023/02/17 08:03:03;;;;;;;6.93;5.10;;;13.70;35.50;;;;;;10397966;28;20240;-69
2023/02/17 08:13:33;;;;;;;7.60;4.50;;;13.70;35.20;;;;;;10333773;28;20245;-69
2023/02/17 08:18:36;;;;;;;7.03;4.60;;;13.80;35.50;;;;;;10391725;28;20233;-69
2023/02/17 08:23:41;;;;;;;6.97;4.07;;;13.90;35.40;;;;;;10394960;28;20321;-69
2023/02/17 08:28:48;;;;;;;8.90;5.00;;;14.00;35.10;;;;;;10391676;28;20299;-69
2023/02/17 08:33:51;;;;;;;7.10;5.40;;;14.00;35.20;;;;;;10387676;28;20596;-69
2023/02/17 08:38:56;;;;;;;7.10;4.60;;;14.10;34.90;;;;;;10398648;28;20226;-69
2023/02/17 08:44:02;;;;;;;3.90;3.50;;;14.10;34.60;;;;;;10391222;28;20228;-69
2023/02/17 08:49:06;;;;;;;5.30;3.93;;;14.10;34.80;;;;;;10396729;28;20598;-69
2023/02/17 08:54:10;;;;;;;6.13;3.90;;;14.20;35.10;;;;;;10387086;28;20237;-69
2023/02/17 08:59:14;;;;;;;5.00;4.30;;;14.30;34.90;;;;;;10391692;28;20665;-69
2023/02/17 09:04:17;;;;;;;5.43;3.77;;;14.40;35.30;;;;;;10391254;28;20234;-69
2023/02/17 09:09:25;;;;;;;5.43;3.63;;;14.50;35.00;;;;;;10389900;28;20256;-69
2023/02/17 09:14:29;;;;;;;4.37;3.97;;;14.60;34.50;;;;;;10392016;28;20241;-69
2023/02/17 09:19:32;;;;;;;6.13;3.77;;;14.70;34.80;;;;;;10401126;28;20716;-69
2023/02/17 09:24:38;;;;;;;5.03;3.73;;;14.80;35.00;;;;;;10379863;28;20241;-69
2023/02/17 09:29:42;;;;;;;4.37;3.90;;;14.90;34.40;;;;;;10397072;28;20222;-69
2023/02/17 09:34:49;;;;;;;3.90;3.50;;;14.90;34.70;;;;;;10394189;28;20236;-69
2023/02/17 09:39:54;;;;;;;3.47;3.17;;;14.90;35.00;;;;;;10384547;28;20846;-69
2023/02/17 09:45:02;;;;;;;5.93;3.63;;;15.00;34.80;;;;;;10395169;28;20234;-69
2023/02/17 09:50:08;;;;;;;4.87;3.97;;;15.20;34.40;;;;;;10389005;28;20276;-69
2023/02/17 09:55:17;;;;;;;4.60;3.83;;;15.30;34.60;;;;;;10382160;28;20295;-69
2023/02/17 10:00:25;;;;;;;5.07;3.30;;;15.30;33.30;;;;;;10391580;28;20714;-69
2023/02/17 10:05:33;;;;;;;5.77;3.37;;;15.40;33.90;;;;;;10398197;28;20233;-69
2023/02/17 10:10:44;;;;;;;3.90;3.53;;;15.40;34.70;;;;;;10398900;28;20617;-69
2023/02/17 10:15:51;;;;;;;5.60;3.27;;;15.60;34.10;;;;;;10384677;28;20230;-69
2023/02/17 10:21:00;;;;;;;4.77;3.17;;;15.70;34.40;;;;;;10393750;28;20253;-68
2023/02/17 10:26:16;;;;;;;3.63;2.93;;;15.80;34.30;;;;;;10386163;28;20234;-69
2023/02/17 10:31:31;;;;;;;3.10;2.77;;;15.80;34.00;;;;;;10379870;28;20705;-69
2023/02/17 10:36:46;;;;;;;3.60;2.90;;;15.90;34.00;;;;;;10398782;28;20643;-69
2023/02/17 10:41:54;;;;;;;4.60;3.00;;;16.00;34.10;;;;;;10389775;28;20234;-69
2023/02/17 10:46:58;;;;;;;5.33;3.07;;;16.10;34.20;;;;;;10389208;28;20240;-69
2023/02/17 10:52:02;;;;;;;4.27;3.53;;;16.10;34.40;;;;;;10391362;28;20237;-69
2023/02/17 10:57:11;;;;;;;3.03;2.73;;;16.10;34.50;;;;;;10409290;28;20230;-69
2023/02/17 11:02:18;;;;;;;6.87;2.83;;;16.20;34.00;;;;;;10397216;28;20248;-69
2023/02/17 11:07:31;;;;;;;3.50;2.43;;;16.20;34.10;;;;;;10394132;28;20240;-68
2023/02/17 11:12:41;;;;;;;3.17;2.53;;;16.20;34.30;;;;;;10394604;28;20647;-68
2023/02/17 11:17:45;;;;;;;3.27;2.40;;;16.40;34.20;;;;;;10403556;28;20225;-69
2023/02/17 11:23:03;;;;;;;3.07;2.20;;;16.40;34.70;;;;;;10389502;28;20265;-68
2023/02/17 11:28:12;;;;;;;3.33;2.53;;;16.40;34.50;;;;;;10400763;28;20313;-68
2023/02/17 11:33:21;;;;;;;2.63;2.17;;;16.50;33.50;;;;;;10392227;28;20244;-68
2023/02/17 11:38:27;;;;;;;3.80;2.70;;;16.50;34.20;;;;;;10399690;28;20322;-69
2023/02/17 11:43:32;;;;;;;4.07;2.70;;;16.50;34.20;;;;;;10397792;28;20230;-69
2023/02/17 11:49:03;;;;;;;2.77;2.57;;;16.50;34.00;;;;;;10395203;28;20308;-68
2023/02/17 11:54:16;;;;;;;6.37;3.43;;;16.50;33.40;;;;;;10382154;28;20233;-69
2023/02/17 11:59:40;;;;;;;4.20;2.70;;;16.40;33.40;;;;;;10388241;28;20720;-69
2023/02/17 12:05:05;;;;;;;2.67;2.47;;;16.40;33.80;;;;;;10390808;28;20233;-69
2023/02/17 12:10:17;;;;;;;2.70;2.50;;;16.40;33.40;;;;;;10399254;28;20241;-69
2023/02/17 12:15:34;;;;;;;3.93;2.90;;;16.40;33.90;;;;;;10394672;28;20300;-69
2023/02/17 12:20:48;;;;;;;3.70;2.30;;;16.40;33.80;;;;;;10404463;28;20229;-68
2023/02/17 12:25:59;;;;;;;2.60;2.00;;;16.40;34.10;;;;;;10393327;28;20237;-68
2023/02/17 12:31:15;;;;;;;2.53;2.20;;;16.50;34.20;;;;;;10388052;28;20234;-69
2023/02/17 12:36:20;;;;;;;5.07;1.87;;;16.60;34.50;;;;;;10383669;28;20244;-68
2023/02/17 12:41:29;;;;;;;1.70;1.60;;;16.80;35.00;;;;;;10392393;28;20229;-68
2023/02/17 12:46:39;;;;;;;1.87;1.47;;;16.80;34.80;;;;;;10382788;28;20592;-68
2023/02/17 12:51:47;;;;;;;1.80;1.40;;;16.90;34.30;;;;;;10391702;28;20237;-68
2023/02/17 12:56:58;;;;;;;2.23;1.50;;;16.90;34.10;;;;;;10395025;28;20234;-68
2023/02/17 13:02:05;;;;;;;1.40;1.30;;;16.90;33.80;;;;;;10391523;28;20410;-68
2023/02/17 13:07:26;;;;;;;1.90;1.70;;;17.00;34.20;;;;;;10387739;28;20245;-68
2023/02/17 13:12:37;;;;;;;2.57;1.90;;;16.90;33.80;;;;;;10387118;28;20233;-69
2023/02/17 13:17:54;;;;;;;3.43;2.60;;;16.90;34.10;;;;;;10388187;28;20717;-69
2023/02/17 13:23:08;;;;;;;4.77;3.53;;;16.80;34.70;;;;;;10382318;28;20229;-68
2023/02/17 13:28:42;;;;;;;5.93;4.23;;;16.70;35.00;;;;;;10381664;28;20237;-69
2023/02/17 13:33:49;;;;;;;4.37;2.90;;;16.70;35.10;;;;;;10310323;28;20225;-68
2023/02/17 13:38:58;;;;;;;3.67;3.37;;;16.60;35.20;;;;;;10387205;28;20234;-69
2023/02/17 13:44:27;;;;;;;4.03;3.20;;;16.50;35.90;;;;;;10389319;28;20297;-69
2023/02/17 13:49:34;;;;;;;2.97;2.67;;;16.40;36.50;;;;;;10388318;28;20233;-69
2023/02/17 13:54:37;;;;;;;4.00;2.93;;;16.30;36.30;;;;;;10391345;28;20240;-69
2023/02/17 13:59:40;;;;;;;2.60;2.40;;;16.10;36.40;;;;;;10387417;28;20229;-68
2023/02/17 14:04:44;;;;;;;2.60;2.40;;;16.00;36.80;;;;;;10387099;28;20239;-69
2023/02/17 14:09:53;;;;;;;3.20;2.60;;;15.90;37.40;;;;;;10381576;28;20237;-69
2023/02/17 14:14:56;;;;;;;2.40;2.20;;;15.80;38.10;;;;;;10377053;28;20740;-71
2023/02/17 14:20:01;;;;;;;4.07;2.37;;;15.70;37.40;;;;;;10379004;28;20242;-69
2023/02/17 14:25:06;;;;;;;2.90;2.60;;;15.60;38.00;;;;;;10371994;28;20676;-69
2023/02/17 14:30:14;;;;;;;2.93;2.73;;;15.60;38.00;;;;;;10386978;28;20438;-69
2023/02/17 14:35:23;;;;;;;6.43;3.60;;;15.50;38.00;;;;;;10388528;28;20300;-69
2023/02/17 14:40:27;;;;;;;4.17;3.33;;;15.50;38.10;;;;;;10387200;28;20734;-69
2023/02/17 14:45:30;;;;;;;3.87;3.10;;;15.40;37.60;;;;;;10383061;28;20592;-70
2023/02/17 14:50:40;;;;;;;3.80;3.50;;;15.40;37.50;;;;;;10382768;28;20238;-68
2023/02/17 14:55:47;;;;;;;3.60;3.20;;;15.40;37.70;;;;;;10384238;28;20809;-71
2023/02/17 15:00:51;;;;;;;4.37;3.90;;;15.50;37.70;;;;;;10387825;28;20225;-68
2023/02/17 15:05:55;;;;;;;3.30;3.00;;;15.50;37.70;;;;;;10385454;28;20227;-68
2023/02/17 15:10:59;;;;;;;3.57;2.87;;;15.50;37.60;;;;;;10384724;28;20265;-68
2023/02/17 15:16:02;;;;;;;3.27;2.50;;;15.60;37.60;;;;;;10393503;28;20603;-69
2023/02/17 15:21:17;;;;;;;2.33;2.13;;;15.60;37.60;;;;;;10382159;28;20291;-69
2023/02/17 15:26:20;;;;;;;3.47;2.47;;;15.70;37.60;;;;;;10382420;28;20237;-68
2023/02/17 15:31:24;;;;;;;2.67;2.47;;;15.80;37.60;;;;;;10392514;28;20803;-68
2023/02/17 15:36:30;;;;;;;2.90;2.23;;;15.80;37.70;;;;;;10395059;28;20234;-68
2023/02/17 15:41:33;;;;;;;4.17;2.30;;;15.90;37.70;;;;;;10394153;28;20353;-69
2023/02/17 15:46:37;;;;;;;3.63;2.30;;;15.90;37.50;;;;;;10404116;28;20237;-68
2023/02/17 15:51:42;;;;;;;3.20;2.43;;;16.00;37.40;;;;;;10387863;28;20333;-68
2023/02/17 15:56:48;;;;;;;2.70;2.37;;;16.00;37.30;;;;;;10388668;28;20244;-69
2023/02/17 16:01:51;;;;;;;3.63;2.53;;;16.00;37.20;;;;;;10393450;28;20230;-68
2023/02/17 16:06:55;;;;;;;3.60;2.47;;;16.10;37.20;;;;;;10393559;28;20229;-68
2023/02/17 16:12:00;;;;;;;2.77;2.37;;;16.00;36.90;;;;;;10387563;28;20225;-71
2023/02/17 16:17:04;;;;;;;2.43;2.23;;;16.00;37.00;;;;;;10398020;28;20328;-68
2023/02/17 16:22:08;;;;;;;2.43;2.20;;;15.90;37.00;;;;;;10395185;28;20826;-72
2023/02/17 16:27:15;;;;;;;3.17;2.73;;;15.90;36.90;;;;;;10399323;28;20238;-68
2023/02/17 16:32:18;;;;;;;3.83;3.17;;;15.90;36.90;;;;;;10396248;28;20231;-68
2023/02/17 16:37:23;;;;;;;3.43;2.73;;;15.80;37.00;;;;;;10396467;28;20247;-68
2023/02/17 16:42:26;;;;;;;4.10;2.90;;;15.80;36.90;;;;;;10388192;28;20293;-68
2023/02/17 16:47:30;;;;;;;2.60;2.40;;;15.70;36.90;;;;;;10394481;28;20278;-68
2023/02/17 16:52:34;;;;;;;2.90;2.60;;;15.70;36.80;;;;;;10389572;28;20230;-68
2023/02/17 16:57:38;;;;;;;3.87;2.90;;;15.60;36.80;;;;;;10392130;28;20234;-68
2023/02/17 17:02:41;;;;;;;3.87;2.83;;;15.50;36.80;;;;;;10394892;28;20717;-68
2023/02/17 17:07:46;;;;;;;3.07;2.77;;;15.50;36.90;;;;;;10394133;28;20228;-68
2023/02/17 17:12:50;;;;;;;4.57;4.10;;;15.50;36.80;;;;;;10403104;28;20313;-68
2023/02/17 17:17:57;;;;;;;4.90;4.40;;;15.50;36.90;;;;;;10387484;28;20234;-68
2023/02/17 17:23:04;;;;;;;4.50;3.10;;;15.40;36.80;;;;;;10387622;28;20233;-68
2023/02/17 17:28:08;;;;;;;4.70;2.97;;;15.40;36.70;;;;;;10393508;28;20229;-69
2023/02/17 17:33:11;;;;;;;4.63;2.90;;;15.30;36.70;;;;;;10387806;28;20724;-68
2023/02/17 17:38:16;;;;;;;3.23;2.93;;;15.30;36.70;;;;;;10386955;28;20233;-68
2023/02/17 17:43:22;;;;;;;2.50;2.30;;;15.30;36.90;;;;;;10390512;28;20237;-68
2023/02/17 17:48:25;;;;;;;3.10;2.40;;;15.30;36.90;;;;;;10387768;28;20238;-71
2023/02/17 17:53:29;;;;;;;4.20;2.60;;;15.20;36.90;;;;;;10390597;28;20624;-69
2023/02/17 17:58:36;;;;;;;2.87;2.60;;;15.20;37.10;;;;;;10385011;28;20230;-69
2023/02/17 18:03:39;;;;;;;3.20;2.70;;;15.10;37.00;;;;;;10388232;28;20701;-68
2023/02/17 18:08:44;;;;;;;2.67;2.40;;;15.10;37.20;;;;;;10394621;28;20244;-68
2023/02/17 18:13:51;;;;;;;2.40;2.20;;;15.10;37.30;;;;;;10385060;28;20605;-68
2023/02/17 18:18:55;;;;;;;2.50;2.30;;;15.10;37.30;;;;;;10385858;28;20291;-71
2023/02/17 18:24:03;;;;;;;2.50;2.10;;;15.10;37.40;;;;;;10388036;28;20229;-68
2023/02/17 18:29:06;;;;;;;2.53;2.33;;;15.20;37.60;;;;;;10391065;28;20237;-68
2023/02/17 18:34:09;;;;;;;2.87;2.57;;;15.10;37.50;;;;;;10393396;28;20726;-68
2023/02/17 18:39:13;;;;;;;2.87;2.40;;;15.10;37.50;;;;;;10388150;28;20237;-68
2023/02/17 18:44:17;;;;;;;2.83;2.50;;;15.10;37.40;;;;;;10376792;28;20638;-68
2023/02/17 18:49:20;;;;;;;2.97;2.50;;;15.20;37.50;;;;;;10384651;28;20225;-68
2023/02/17 18:54:24;;;;;;;3.23;2.33;;;15.20;37.40;;;;;;10392324;28;20237;-68
2023/02/17 18:59:27;;;;;;;2.83;2.60;;;15.20;37.40;;;;;;10386487;28;20227;-68
2023/02/17 19:04:30;;;;;;;3.43;2.90;;;15.20;37.40;;;;;;10387085;28;20245;-68
2023/02/17 19:09:36;;;;;;;2.70;2.40;;;15.20;37.50;;;;;;10383629;28;20683;-71
2023/02/17 19:14:40;;;;;;;2.70;2.50;;;15.10;37.40;;;;;;10384746;28;20634;-69
2023/02/17 19:19:43;;;;;;;2.77;2.53;;;15.10;37.40;;;;;;10391657;28;20236;-73
2023/02/17 19:24:50;;;;;;;2.90;2.60;;;15.10;37.50;;;;;;10387968;28;20592;-68
2023/02/17 19:29:54;;;;;;;2.83;2.40;;;15.20;37.60;;;;;;10390078;28;20737;-68
2023/02/17 19:34:57;;;;;;;2.80;2.60;;;15.20;37.60;;;;;;10384463;28;20252;-68
2023/02/17 19:40:01;;;;;;;2.73;2.53;;;15.10;37.60;;;;;;10383269;28;20280;-68
2023/02/17 19:45:05;;;;;;;3.07;2.60;;;15.20;37.90;;;;;;10380892;28;20253;-68
2023/02/17 19:50:08;;;;;;;4.17;2.27;;;15.20;37.90;;;;;;10388653;28;20234;-71
2023/02/17 19:55:13;;;;;;;2.53;2.30;;;15.20;38.00;;;;;;10383325;28;20238;-68
2023/02/17 20:00:17;;;;;;;2.40;2.20;;;15.20;37.90;;;;;;10382007;28;20239;-75
2023/02/17 20:05:20;;;;;;;3.13;2.00;;;15.20;37.90;;;;;;10385641;28;20230;-73
2023/02/17 20:10:24;;;;;;;2.63;2.20;;;15.30;38.10;;;;;;10383724;28;20230;-69
2023/02/17 20:15:28;;;;;;;3.43;2.27;;;15.30;38.10;;;;;;10376039;28;20245;-69
2023/02/17 20:20:31;;;;;;;2.33;2.13;;;15.30;38.10;;;;;;10379837;28;20229;-72
2023/02/17 20:25:40;;;;;;;2.80;2.33;;;15.30;38.10;;;;;;10384061;28;20248;-69
2023/02/17 20:30:43;;;;;;;2.77;2.53;;;15.30;38.30;;;;;;10383894;28;20225;-69
2023/02/17 20:35:46;;;;;;;2.47;2.27;;;15.30;38.10;;;;;;10380029;28;20230;-69
2023/02/17 20:40:51;;;;;;;2.20;2.00;;;15.30;38.20;;;;;;10383848;28;20709;-69
2023/02/17 20:45:54;;;;;;;2.00;1.90;;;15.30;38.20;;;;;;10386619;28;20616;-69
2023/02/17 20:50:58;;;;;;;2.13;1.90;;;15.30;38.20;;;;;;10386663;28;20226;-69
2023/02/17 20:56:02;;;;;;;2.60;1.90;;;15.30;38.20;;;;;;10383111;28;20839;-69
2023/02/17 21:01:06;;;;;;;2.17;1.97;;;15.40;38.30;;;;;;10387604;28;20244;-69
2023/02/17 21:06:20;;;;;;;2.10;1.90;;;15.40;38.20;;;;;;10383231;28;20308;-69
2023/02/17 21:11:25;;;;;;;2.07;1.70;;;15.40;38.60;;;;;;10383958;28;20222;-69
2023/02/17 21:16:32;;;;;;;1.80;1.70;;;15.40;38.30;;;;;;10383621;28;20237;-69
2023/02/17 21:21:35;;;;;;;1.90;1.80;;;15.40;38.40;;;;;;10381600;28;20269;-69
2023/02/17 21:26:40;;;;;;;2.97;1.53;;;15.50;38.40;;;;;;10381519;28;21012;-69
2023/02/17 21:31:43;;;;;;;2.43;1.57;;;15.50;38.60;;;;;;10388927;28;20363;-69
2023/02/17 21:36:47;;;;;;;2.00;1.40;;;15.50;39.20;;;;;;10382779;28;20643;-72
2023/02/17 21:41:52;;;;;;;1.57;1.47;;;15.40;38.50;;;;;;10387111;28;20237;-69
2023/02/17 21:46:56;;;;;;;1.43;1.33;;;15.50;38.70;;;;;;10384013;28;21331;-69
2023/02/17 21:51:59;;;;;;;1.60;1.50;;;15.50;38.60;;;;;;10378280;28;20610;-69
2023/02/17 21:57:04;;;;;;;1.50;1.40;;;15.60;38.70;;;;;;10389874;28;20230;-70
2023/02/17 22:02:07;;;;;;;1.47;1.37;;;15.60;38.80;;;;;;10384195;28;20233;-69
2023/02/17 22:07:11;;;;;;;1.50;1.40;;;15.50;38.60;;;;;;10384808;28;20233;-69
2023/02/17 22:12:15;;;;;;;2.87;1.83;;;15.60;38.80;;;;;;10380583;28;20238;-69
2023/02/17 22:17:18;;;;;;;1.70;1.60;;;15.50;38.70;;;;;;10380215;28;20628;-69
2023/02/17 22:22:22;;;;;;;1.60;1.50;;;15.60;38.70;;;;;;10382425;28;20722;-69
2023/02/17 22:27:26;;;;;;;2.70;1.73;;;15.50;38.60;;;;;;10382265;28;20610;-69
2023/02/17 22:32:29;;;;;;;3.07;2.00;;;15.50;38.70;;;;;;10386983;28;20230;-69
2023/02/17 22:37:32;;;;;;;1.73;1.57;;;15.60;38.90;;;;;;10372540;28;20238;-69
2023/02/17 22:42:37;;;;;;;1.83;1.57;;;15.60;38.80;;;;;;10375142;28;20248;-69
2023/02/17 22:47:40;;;;;;;2.33;1.50;;;15.50;38.70;;;;;;10384132;28;20237;-69
2023/02/17 22:52:43;;;;;;;1.27;1.20;;;15.50;38.90;;;;;;10382234;28;20225;-69
2023/02/17 22:57:48;;;;;;;2.00;1.30;;;15.50;39.00;;;;;;10391447;28;20609;-69
2023/02/17 23:02:51;;;;;;;1.20;1.10;;;15.50;39.30;;;;;;10388782;28;20722;-69
2023/02/17 23:07:54;;;;;;;1.20;1.20;;;15.50;39.00;;;;;;10390654;28;20718;-69
2023/02/17 23:12:58;;;;;;;1.37;1.20;;;15.50;39.10;;;;;;10389703;28;20234;-71
2023/02/17 23:18:02;;;;;;;1.40;1.30;;;15.50;39.30;;;;;;10384938;28;20247;-69
2023/02/17 23:23:05;;;;;;;1.90;1.40;;;15.40;39.30;;;;;;10390559;28;20238;-69
2023/02/17 23:28:10;;;;;;;1.63;1.50;;;15.40;39.20;;;;;;10389575;28;20252;-69
2023/02/17 23:33:13;;;;;;;1.93;1.80;;;15.40;39.40;;;;;;10393403;28;20253;-69
2023/02/17 23:38:18;;;;;;;1.50;1.40;;;15.40;39.30;;;;;;10392903;28;20246;-69
2023/02/17 23:43:23;;;;;;;1.70;1.60;;;15.40;39.50;;;;;;10392368;28;20236;-69
2023/02/17 23:48:26;;;;;;;2.83;1.57;;;15.40;39.60;;;;;;10397757;28;20230;-69
2023/02/17 23:53:29;;;;;;;2.40;1.63;;;15.30;39.50;;;;;;10389838;28;20232;-70
2023/02/17 23:58:34;;;;;;;1.50;1.40;;;15.30;39.50;;;;;;10395631;28;20304;-71
